Time;durP1;ratioP1;P1;durP2;ratioP2;P2;SDS_P1;SDS_P2;PMS_P1;PMS_P2;Temp;Humidity;BMP_temperature;BMP_pressure;BME280_temperature;BME280_humidity;BME280_pressure;Samples;Min_cycle;Max_cycle;Signal;HPM_P1;HPM_P2
2021/10/31 00:02:13;;;;;;;1.25;0.65;;;;;;;-145.69;88.48;71088.00;5093542;28;20206;-80
2021/10/31 00:04:39;;;;;;;1.52;0.70;;;;;;;-145.69;90.56;71088.00;5093732;28;20202;-81
2021/10/31 00:07:07;;;;;;;2.22;0.70;;;;;;;-145.69;88.03;71054.19;5093555;28;20197;-80
2021/10/31 00:09:33;;;;;;;0.70;0.60;;;;;;;-145.69;86.39;71040.25;5093455;28;20259;-80
2021/10/31 00:12:00;;;;;;;2.80;0.73;;;;;;;-145.69;88.26;71050.22;5093324;28;20202;-81
2021/10/31 00:14:28;;;;;;;0.60;0.40;;;;;;;-145.69;88.10;71048.22;5093008;28;20692;-81
2021/10/31 00:16:58;;;;;;;0.80;0.77;;;;;;;-145.69;88.20;71046.22;5093098;28;20206;-80
2021/10/31 00:19:25;;;;;;;0.55;0.55;;;;;;;-145.69;87.82;71044.22;5093367;28;20211;-80
2021/10/31 00:21:51;;;;;;;0.70;0.57;;;;;;;-145.69;89.05;71062.13;5093091;28;20202;-80
2021/10/31 00:24:18;;;;;;;1.33;0.60;;;;;;;-145.69;89.47;71042.25;5093195;28;20202;-81
2021/10/31 00:26:44;;;;;;;0.82;0.50;;;;;;;-145.69;88.06;71052.19;5093061;28;20194;-81
2021/10/31 00:29:11;;;;;;;4.03;0.90;;;;;;;-145.69;89.11;71058.16;5092916;28;20202;-81
2021/10/31 00:31:39;;;;;;;0.90;0.60;;;;;;;-145.69;91.36;71080.06;5092870;28;20230;-81
2021/10/31 00:34:06;;;;;;;0.43;0.43;;;;;;;-145.69;91.25;71105.91;5093115;28;20290;-81
2021/10/31 00:36:32;;;;;;;0.70;0.70;;;;;;;-145.69;92.29;71145.72;5092503;28;20682;-80
2021/10/31 00:38:59;;;;;;;0.57;0.57;;;;;;;-145.69;94.77;71175.56;5093134;28;20259;-81
2021/10/31 00:41:25;;;;;;;1.17;0.70;;;;;;;-145.69;96.60;71187.50;5093016;28;20206;-81
2021/10/31 00:43:51;;;;;;;1.73;0.68;;;;;;;-145.69;95.82;71167.59;5092931;28;20194;-80
2021/10/31 00:46:19;;;;;;;0.63;0.60;;;;;;;-145.69;95.93;71195.47;5092943;28;20598;-81
2021/10/31 00:48:46;;;;;;;2.17;0.80;;;;;;;-145.69;95.02;71181.53;5092513;28;20201;-80
2021/10/31 00:51:13;;;;;;;1.10;0.80;;;;;;;-145.69;96.75;71207.38;5092955;28;20201;-81
2021/10/31 00:53:40;;;;;;;0.70;0.70;;;;;;;-145.69;96.13;71203.41;5092713;28;20599;-81
2021/10/31 00:56:07;;;;;;;1.33;0.90;;;;;;;-145.69;97.02;71229.28;5092685;28;20201;-81
2021/10/31 00:58:33;;;;;;;1.10;0.73;;;;;;;-145.69;97.22;71191.47;5092796;28;20545;-81
2021/10/31 01:01:00;;;;;;;0.50;0.50;;;;;;;-145.69;95.67;71171.56;5092756;28;20667;-80
2021/10/31 01:03:26;;;;;;;0.60;0.60;;;;;;;-145.69;96.59;71179.53;5093005;28;20198;-80
2021/10/31 01:05:58;;;;;;;1.07;0.73;;;;;;;-145.69;96.35;71199.44;5092470;28;20194;-80
2021/10/31 01:08:40;;;;;;;1.03;0.83;;;;;;;-145.69;97.73;71207.38;5092773;28;20205;-80
2021/10/31 01:11:17;;;;;;;1.47;0.87;;;;;;;-145.69;98.00;71201.41;5092636;28;20205;-80
2021/10/31 01:13:55;;;;;;;1.23;0.80;;;;;;;-145.69;98.49;71187.50;5092700;28;20303;-79
2021/10/31 01:16:37;;;;;;;1.23;0.70;;;;;;;-145.69;96.78;71143.72;5092774;28;20201;-79
2021/10/31 01:19:25;;;;;;;0.60;0.60;;;;;;;-145.69;94.18;71095.97;5092757;28;20194;-80
2021/10/31 01:22:01;;;;;;;1.80;0.60;;;;;;;-145.69;90.37;71076.06;5092726;28;20502;-80
2021/10/31 01:24:43;;;;;;;0.80;0.80;;;;;;;-145.69;94.08;71099.94;5094170;28;20194;-80
2021/10/31 01:27:22;;;;;;;0.55;0.55;;;;;;;-145.69;94.19;71095.97;5092590;28;20201;-80
2021/10/31 01:30:02;;;;;;;1.13;0.60;;;;;;;-145.69;92.81;71088.00;5092273;28;20287;-80
2021/10/31 01:32:37;;;;;;;0.60;0.60;;;;;;;-145.69;94.62;71074.09;5091370;28;20209;-80
2021/10/31 01:35:14;;;;;;;0.98;0.68;;;;;;;-145.69;96.09;71056.16;5091473;28;20225;-80
2021/10/31 01:37:49;;;;;;;0.77;0.70;;;;;;;-145.69;95.17;71054.19;5093141;28;20201;-80
2021/10/31 01:40:19;;;;;;;1.08;0.63;;;;;;;-145.69;94.86;71048.22;5096115;28;20244;-80
2021/10/31 01:42:55;;;;;;;1.48;0.88;;;;;;;-145.69;93.47;71040.25;5096116;28;20197;-80
2021/10/31 01:45:32;;;;;;;0.90;0.70;;;;;;;-145.69;93.57;71042.25;5096186;28;20231;-80
2021/10/31 01:48:06;;;;;;;0.40;0.40;;;;;;;-145.69;93.74;71052.19;5095981;28;20206;-80
2021/10/31 01:50:39;;;;;;;1.25;0.60;;;;;;;-145.69;92.36;71036.28;5095881;28;20209;-80
2021/10/31 01:53:12;;;;;;;0.55;0.55;;;;;;;-145.69;89.98;71006.44;5095926;28;20603;-81
2021/10/31 01:55:44;;;;;;;1.42;0.50;;;;;;;-145.69;88.70;70992.50;5095797;28;20233;-80
2021/10/31 01:58:13;;;;;;;1.60;0.80;;;;;;;-145.69;88.36;70994.50;5095792;28;20194;-81
2021/10/31 02:00:44;;;;;;;0.60;0.50;;;;;;;-145.69;86.98;70986.53;5095732;28;20546;-80
2021/10/31 02:03:13;;;;;;;0.80;0.60;;;;;;;-145.69;87.09;70974.59;5095609;28;20267;-80
2021/10/31 02:05:41;;;;;;;2.92;0.63;;;;;;;-145.69;86.46;70972.59;5095875;28;20202;-80
2021/10/31 02:08:11;;;;;;;0.93;0.70;;;;;;;-145.69;83.12;70948.72;5095631;28;20565;-80
2021/10/31 02:10:40;;;;;;;0.68;0.63;;;;;;;-145.69;84.48;70920.88;5095735;28;20198;-80
2021/10/31 02:13:09;;;;;;;1.92;0.73;;;;;;;-145.69;82.80;70899.00;5095256;28;20205;-80
2021/10/31 02:15:38;;;;;;;0.98;0.55;;;;;;;-145.69;81.87;70895.00;5095319;28;20279;-79
2021/10/31 02:18:05;;;;;;;1.05;0.55;;;;;;;-145.69;81.67;70877.09;5095608;28;20194;-80
2021/10/31 02:20:33;;;;;;;0.98;0.52;;;;;;;-145.69;82.92;70885.06;5095642;28;20204;-78
2021/10/31 02:23:03;;;;;;;1.13;0.50;;;;;;;-145.69;83.50;70891.03;5095423;28;20205;-79
2021/10/31 02:25:30;;;;;;;0.55;0.50;;;;;;;-145.69;84.04;70897.00;5094894;28;20224;-79
2021/10/31 02:27:57;;;;;;;0.70;0.63;;;;;;;-145.69;83.94;70885.06;5095166;28;20271;-79
2021/10/31 02:30:23;;;;;;;2.08;0.60;;;;;;;-145.69;84.06;70906.94;5094964;28;20271;-78
2021/10/31 02:32:51;;;;;;;0.50;0.50;;;;;;;-145.69;83.93;70920.88;5095360;28;20270;-79
2021/10/31 02:35:18;;;;;;;0.70;0.70;;;;;;;-145.69;84.36;70928.84;5095209;28;20652;-79
2021/10/31 02:37:45;;;;;;;0.77;0.60;;;;;;;-145.69;84.20;70936.78;5094802;28;20198;-80
2021/10/31 02:40:15;;;;;;;0.82;0.65;;;;;;;-145.69;86.13;70964.66;5094989;28;20220;-79
2021/10/31 02:42:42;;;;;;;0.63;0.63;;;;;;;-145.69;87.90;70978.56;5094733;28;20202;-81
2021/10/31 02:45:10;;;;;;;0.80;0.57;;;;;;;-145.69;88.90;70994.50;5094959;28;20210;-82
2021/10/31 02:47:41;;;;;;;1.65;0.57;;;;;;;-145.69;90.76;71016.38;5094914;28;20206;-81
2021/10/31 02:50:10;;;;;;;0.80;0.65;;;;;;;-145.69;92.32;71036.28;5094763;28;20209;-81
2021/10/31 02:53:02;;;;;;;0.85;0.60;;;;;;;-145.69;92.68;71028.31;5094709;28;20717;-81
2021/10/31 02:55:37;;;;;;;2.00;0.70;;;;;;;-145.69;91.40;71026.31;5088837;28;20244;-82
2021/10/31 02:58:13;;;;;;;0.93;0.50;;;;;;;-145.69;92.70;71056.16;5094847;28;20197;-81
2021/10/31 03:00:41;;;;;;;1.52;0.77;;;;;;;-145.69;93.01;71056.16;5094561;28;20556;-82
2021/10/31 03:03:09;;;;;;;1.00;0.65;;;;;;;-145.69;94.39;71090.00;5094544;28;20600;-81
2021/10/31 03:05:35;;;;;;;1.95;0.68;;;;;;;-145.69;96.32;71097.97;5094227;28;20209;-81
2021/10/31 03:08:02;;;;;;;2.95;0.60;;;;;;;-145.69;96.42;71111.88;5094679;28;20202;-81
2021/10/31 03:10:28;;;;;;;1.15;0.65;;;;;;;-145.69;97.39;71119.84;5094384;28;20635;-81
2021/10/31 03:12:57;;;;;;;0.93;0.60;;;;;;;-145.69;98.35;71129.78;5094300;28;20206;-81
2021/10/31 03:15:26;;;;;;;1.00;0.65;;;;;;;-145.69;99.25;71133.78;5094389;28;20225;-81
2021/10/31 03:17:52;;;;;;;0.45;0.45;;;;;;;-145.69;100.00;71147.69;5094288;28;20209;-82
2021/10/31 03:20:19;;;;;;;0.88;0.80;;;;;;;-145.69;100.00;71147.69;5094072;28;20247;-81
2021/10/31 03:22:45;;;;;;;0.63;0.60;;;;;;;-145.69;100.00;71147.69;5093939;28;20234;-82
2021/10/31 03:25:12;;;;;;;1.57;0.70;;;;;;;-145.69;100.00;71135.75;5093977;28;20206;-81
2021/10/31 03:27:38;;;;;;;0.97;0.73;;;;;;;-145.69;99.03;71131.78;5093989;28;20199;-81
2021/10/31 03:30:07;;;;;;;1.10;0.77;;;;;;;-145.69;99.22;71127.81;5103659;28;20229;-81
2021/10/31 03:32:33;;;;;;;0.60;0.43;;;;;;;-145.69;98.76;71123.81;5114133;27;20254;-81
2021/10/31 03:35:00;;;;;;;0.70;0.70;;;;;;;-145.69;96.42;71084.03;5114440;28;20587;-81
2021/10/31 03:37:26;;;;;;;0.93;0.60;;;;;;;-145.69;96.74;71095.97;5112882;28;20231;-81
2021/10/31 03:39:53;;;;;;;3.30;0.60;;;;;;;-145.69;97.71;71103.94;5114362;28;20201;-81
2021/10/31 03:42:19;;;;;;;0.70;0.70;;;;;;;-145.69;98.50;71103.94;5114095;28;20193;-81
2021/10/31 03:44:50;;;;;;;0.88;0.50;;;;;;;-145.69;98.07;71111.88;5113569;28;20446;-81
2021/10/31 03:47:20;;;;;;;0.67;0.50;;;;;;;-145.69;97.01;71095.97;5113889;28;20205;-81
2021/10/31 03:49:46;;;;;;;2.80;0.60;;;;;;;-145.69;94.60;71070.09;5113840;28;20679;-81
2021/10/31 03:52:13;;;;;;;2.65;0.50;;;;;;;-145.69;93.43;71048.22;5114084;28;20205;-81
2021/10/31 03:54:40;;;;;;;0.50;0.47;;;;;;;-145.69;94.23;71060.16;5113949;28;20591;-80
2021/10/31 03:57:07;;;;;;;1.30;0.50;;;;;;;-145.69;95.66;71080.06;5113782;28;20208;-80
2021/10/31 03:59:33;;;;;;;5.53;0.60;;;;;;;-145.69;96.57;71080.06;5113888;28;20209;-80
2021/10/31 04:02:00;;;;;;;1.30;0.70;;;;;;;-145.69;96.09;71080.06;5113244;28;20594;-81
2021/10/31 04:04:28;;;;;;;1.20;0.45;;;;;;;-145.69;96.36;71107.91;5113928;28;20197;-81
2021/10/31 04:06:54;;;;;;;0.50;0.50;;;;;;;-145.69;98.46;71105.91;5113505;28;20667;-80
2021/10/31 04:09:21;;;;;;;0.50;0.50;;;;;;;-145.69;96.80;71084.03;5113832;28;20205;-80
2021/10/31 04:11:47;;;;;;;0.67;0.50;;;;;;;-145.69;97.27;71109.91;5113237;28;20197;-81
2021/10/31 04:14:14;;;;;;;1.50;0.60;;;;;;;-145.69;98.70;71117.84;5113547;28;20197;-81
2021/10/31 04:16:41;;;;;;;1.17;0.70;;;;;;;-145.69;99.03;71127.81;5113742;28;20264;-80
2021/10/31 04:19:07;;;;;;;0.80;0.70;;;;;;;-145.69;99.00;71119.84;5113719;28;20202;-80
2021/10/31 04:21:35;;;;;;;5.17;0.80;;;;;;;-145.69;99.74;71143.72;5113511;28;20231;-82
2021/10/31 04:24:01;;;;;;;2.00;0.60;;;;;;;-145.69;100.00;71157.66;5113563;27;20258;-82
2021/10/31 04:26:28;;;;;;;1.38;0.50;;;;;;;-145.69;99.95;71127.81;5113786;28;20201;-81
2021/10/31 04:28:54;;;;;;;1.87;0.70;;;;;;;-145.69;97.50;71107.91;5112964;28;20205;-82
2021/10/31 04:31:20;;;;;;;1.20;0.60;;;;;;;-145.69;96.12;71072.09;5113239;28;20236;-81
2021/10/31 04:33:47;;;;;;;1.80;0.67;;;;;;;-145.69;94.54;71064.13;5113619;28;20246;-81
2021/10/31 04:36:14;;;;;;;0.50;0.50;;;;;;;-145.69;95.22;71074.09;5113297;28;20228;-81
2021/10/31 04:38:41;;;;;;;0.63;0.57;;;;;;;-145.69;98.23;71115.88;5113178;28;20247;-81
2021/10/31 04:41:09;;;;;;;0.70;0.50;;;;;;;-145.69;100.00;71159.63;5113171;28;20212;-81
2021/10/31 04:43:35;;;;;;;1.77;0.60;;;;;;;-145.69;100.00;71179.53;5113301;28;20198;-81
2021/10/31 04:46:02;;;;;;;1.30;0.93;;;;;;;-145.69;100.00;71195.47;5113469;28;20193;-82
2021/10/31 04:48:28;;;;;;;0.83;0.63;;;;;;;-145.69;100.00;71201.41;5113466;28;20280;-81
2021/10/31 04:50:55;;;;;;;1.47;0.60;;;;;;;-145.69;100.00;71199.44;5113396;28;20201;-81
2021/10/31 04:53:21;;;;;;;0.70;0.70;;;;;;;-145.69;100.00;71175.56;5113264;28;20197;-80
2021/10/31 04:55:49;;;;;;;1.27;0.70;;;;;;;-145.69;100.00;71145.72;5112798;28;20225;-80
2021/10/31 04:58:16;;;;;;;0.67;0.60;;;;;;;-145.69;100.00;71163.63;5113139;28;20201;-81
2021/10/31 05:00:42;;;;;;;1.90;0.60;;;;;;;-145.69;100.00;71169.59;5113162;28;20590;-82
2021/10/31 05:03:09;;;;;;;0.67;0.53;;;;;;;-145.69;100.00;71153.66;5113370;28;20205;-82
2021/10/31 05:05:35;;;;;;;0.57;0.57;;;;;;;-145.69;100.00;71177.53;5113102;28;20193;-81
2021/10/31 05:08:04;;;;;;;0.97;0.70;;;;;;;-145.69;100.00;71173.56;5113195;28;20202;-81
2021/10/31 05:10:30;;;;;;;0.30;0.30;;;;;;;-145.69;100.00;71153.66;5113023;28;20727;-82
2021/10/31 05:12:58;;;;;;;0.83;0.50;;;;;;;-145.69;100.00;71173.56;5113822;28;20213;-81
2021/10/31 05:15:25;;;;;;;1.40;0.50;;;;;;;-145.69;100.00;71195.47;5117137;28;20229;-82
2021/10/31 05:17:53;;;;;;;0.83;0.70;;;;;;;-145.69;100.00;71215.34;5116781;27;20243;-81
2021/10/31 05:20:19;;;;;;;0.43;0.43;;;;;;;-145.69;100.00;71239.22;5116827;28;20727;-82
2021/10/31 05:22:46;;;;;;;2.40;0.70;;;;;;;-145.69;100.00;71235.25;5113040;28;20197;-82
2021/10/31 05:25:13;;;;;;;1.10;0.50;;;;;;;-145.69;100.00;71221.31;5116586;27;20197;-81
2021/10/31 05:27:40;;;;;;;0.53;0.53;;;;;;;-145.69;100.00;71193.47;5116551;28;20198;-81
2021/10/31 05:30:11;;;;;;;0.60;0.60;;;;;;;-145.69;100.00;71177.53;5116219;28;20233;-80
2021/10/31 05:32:38;;;;;;;2.30;0.60;;;;;;;-145.69;100.00;71143.72;5116138;28;20197;-81
2021/10/31 05:35:06;;;;;;;0.87;0.50;;;;;;;-145.69;100.00;71133.78;5116836;28;20293;-81
2021/10/31 05:37:37;;;;;;;0.80;0.50;;;;;;;-145.69;100.00;71163.63;5115620;28;20201;-81
2021/10/31 05:40:06;;;;;;;0.70;0.70;;;;;;;-145.69;100.00;71179.53;5115984;28;20209;-81
2021/10/31 05:42:33;;;;;;;0.40;0.40;;;;;;;-145.69;100.00;71183.50;5116204;28;20206;-81
2021/10/31 05:44:59;;;;;;;2.47;0.60;;;;;;;-145.69;100.00;71199.44;5116187;28;20563;-81
2021/10/31 05:47:28;;;;;;;1.13;0.60;;;;;;;-145.69;100.00;71193.47;5116067;28;20201;-82
2021/10/31 05:49:55;;;;;;;1.37;0.60;;;;;;;-145.69;100.00;71211.38;5116202;28;20202;-81
2021/10/31 05:52:21;;;;;;;0.80;0.80;;;;;;;-145.69;100.00;71219.34;5115573;28;20645;-82
2021/10/31 05:54:48;;;;;;;0.70;0.50;;;;;;;-145.69;100.00;71229.28;5116368;28;20197;-82
2021/10/31 05:57:17;;;;;;;1.40;0.67;;;;;;;-145.69;100.00;71245.19;5115735;28;20221;-81
2021/10/31 05:59:43;;;;;;;0.50;0.50;;;;;;;-145.69;100.00;71253.16;5115715;28;20209;-81
2021/10/31 06:02:10;;;;;;;1.17;0.70;;;;;;;-145.69;100.00;71261.13;5116172;28;20201;-81
2021/10/31 06:04:39;;;;;;;1.17;0.67;;;;;;;-145.69;100.00;71261.13;5116039;28;20597;-81
2021/10/31 06:07:06;;;;;;;0.87;0.70;;;;;;;-145.69;100.00;71277.03;5115981;27;20251;-80
2021/10/31 06:09:33;;;;;;;0.70;0.70;;;;;;;-145.69;100.00;71263.09;5116284;28;20204;-80
2021/10/31 06:11:59;;;;;;;1.00;0.90;;;;;;;-145.69;100.00;71227.28;5115807;28;20254;-80
2021/10/31 06:14:26;;;;;;;2.50;0.73;;;;;;;-145.69;100.00;71215.34;5115953;28;20194;-81
2021/10/31 06:16:52;;;;;;;3.33;0.60;;;;;;;-145.69;100.00;71215.34;5115800;28;20221;-81
2021/10/31 06:19:19;;;;;;;2.73;0.80;;;;;;;-145.69;100.00;71223.31;5115741;28;20194;-81
2021/10/31 06:21:47;;;;;;;0.93;0.73;;;;;;;-145.69;100.00;71215.34;5115652;28;20594;-81
2021/10/31 06:24:14;;;;;;;0.60;0.60;;;;;;;-145.69;100.00;71215.34;5115537;28;20200;-81
2021/10/31 06:26:40;;;;;;;0.60;0.60;;;;;;;-145.69;100.00;71215.34;5115398;28;20242;-81
2021/10/31 06:29:07;;;;;;;1.00;0.80;;;;;;;-145.69;100.00;71217.34;5115751;28;20243;-81
2021/10/31 06:31:33;;;;;;;0.70;0.57;;;;;;;-145.69;100.00;71235.25;5115363;28;20232;-81
2021/10/31 06:34:00;;;;;;;4.63;0.90;;;;;;;-145.69;100.00;71239.22;5115391;28;20201;-80
2021/10/31 06:36:26;;;;;;;1.53;0.67;;;;;;;-145.69;100.00;71227.28;5115428;28;20254;-81
2021/10/31 06:38:55;;;;;;;0.70;0.60;;;;;;;-145.69;100.00;71229.28;5115472;28;20655;-81
2021/10/31 06:41:22;;;;;;;0.67;0.67;;;;;;;-145.69;100.00;71227.28;5115509;28;20206;-80
2021/10/31 06:43:48;;;;;;;0.73;0.70;;;;;;;-145.69;100.00;71219.34;5115527;28;20197;-80
2021/10/31 06:46:15;;;;;;;1.30;0.73;;;;;;;-145.69;100.00;71215.34;5115093;28;20652;-80
2021/10/31 06:48:41;;;;;;;1.37;0.83;;;;;;;-145.69;100.00;71213.38;5114820;28;20205;-81
2021/10/31 06:51:08;;;;;;;0.70;0.60;;;;;;;-145.69;100.00;71213.38;5114598;28;20435;-80
2021/10/31 06:53:35;;;;;;;1.20;0.60;;;;;;;-145.69;100.00;71217.34;5115168;28;20197;-79
2021/10/31 06:56:03;;;;;;;0.73;0.73;;;;;;;-145.69;100.00;71213.38;5115171;28;20237;-80
2021/10/31 06:58:29;;;;;;;2.30;0.57;;;;;;;-145.69;100.00;71217.34;5114750;28;20292;-80
2021/10/31 07:00:56;;;;;;;3.70;0.70;;;;;;;-145.69;100.00;71213.38;5114848;28;20565;-81
2021/10/31 07:03:22;;;;;;;0.70;0.60;;;;;;;-145.69;100.00;71189.47;5114667;28;20198;-81
2021/10/31 07:05:49;;;;;;;2.10;0.60;;;;;;;-145.69;100.00;71151.69;5115049;28;20202;-80
2021/10/31 07:08:15;;;;;;;1.37;0.57;;;;;;;-145.69;100.00;71125.81;5115170;27;20251;-81
2021/10/31 07:10:42;;;;;;;0.80;0.80;;;;;;;-145.69;100.00;71105.91;5114720;28;20193;-81
2021/10/31 07:13:10;;;;;;;1.17;0.60;;;;;;;-145.69;100.00;71095.97;5114765;28;20254;-80
2021/10/31 07:15:36;;;;;;;0.60;0.60;;;;;;;-145.69;100.00;71082.03;5114339;28;20202;-81
2021/10/31 07:18:03;;;;;;;0.60;0.60;;;;;;;-145.69;100.00;71068.13;5114808;28;20250;-81
2021/10/31 07:20:30;;;;;;;3.60;0.60;;;;;;;-145.69;100.00;71060.16;5114718;28;20392;-80
2021/10/31 07:22:56;;;;;;;0.83;0.53;;;;;;;-145.69;100.00;71062.13;5114616;28;20209;-80
2021/10/31 07:25:27;;;;;;;0.50;0.50;;;;;;;-145.69;100.00;71064.13;5107947;28;20587;-80
2021/10/31 07:27:54;;;;;;;0.63;0.60;;;;;;;-145.69;100.00;71072.09;5094121;28;20206;-80
2021/10/31 07:30:23;;;;;;;0.50;0.50;;;;;;;-145.69;100.00;71074.09;5093709;28;20287;-80
2021/10/31 07:32:54;;;;;;;0.90;0.70;;;;;;;-145.69;100.00;71076.06;5094171;28;20198;-80
2021/10/31 07:35:21;;;;;;;1.13;0.60;;;;;;;-145.69;100.00;71074.09;5093527;28;20275;-80
2021/10/31 07:37:47;;;;;;;0.50;0.50;;;;;;;-145.69;100.00;71076.06;5093749;28;20688;-81
2021/10/31 07:40:14;;;;;;;1.02;0.73;;;;;;;-145.69;100.00;71074.09;5093802;28;20198;-81
2021/10/31 07:42:40;;;;;;;1.00;0.83;;;;;;;-145.69;100.00;71068.13;5093483;28;20549;-81
2021/10/31 07:45:08;;;;;;;1.07;0.90;;;;;;;-145.69;100.00;71070.09;5094041;28;20198;-81
2021/10/31 07:47:36;;;;;;;0.80;0.65;;;;;;;-145.69;100.00;71060.16;5093550;28;20209;-81
2021/10/31 07:50:03;;;;;;;1.15;0.73;;;;;;;-145.69;100.00;71046.22;5093717;28;20201;-81
2021/10/31 07:52:30;;;;;;;1.60;1.00;;;;;;;-145.69;100.00;71050.22;5093591;28;20681;-81
2021/10/31 07:54:58;;;;;;;3.08;1.48;;;;;;;-145.69;100.00;71044.22;5093511;28;20208;-81
2021/10/31 07:57:26;;;;;;;2.63;1.30;;;;;;;-145.69;100.00;71018.38;5093444;28;20221;-80
2021/10/31 07:59:52;;;;;;;0.57;0.52;;;;;;;-145.69;100.00;71000.47;5093696;28;20197;-81
2021/10/31 08:02:19;;;;;;;2.25;0.60;;;;;;;-145.69;100.00;70990.50;5093663;28;20289;-81
2021/10/31 08:04:47;;;;;;;0.52;0.50;;;;;;;-145.69;100.00;70980.56;5093440;28;20213;-81
2021/10/31 08:07:14;;;;;;;0.73;0.60;;;;;;;-145.69;100.00;70964.66;5093412;28;20304;-81
2021/10/31 08:09:40;;;;;;;0.80;0.52;;;;;;;-145.69;100.00;70958.69;5093163;28;20260;-80
2021/10/31 08:12:07;;;;;;;1.48;0.50;;;;;;;-145.69;100.00;70964.66;5093446;28;20538;-81
2021/10/31 08:14:34;;;;;;;0.50;0.50;;;;;;;-145.69;100.00;70940.78;5093547;28;20569;-82
2021/10/31 08:17:01;;;;;;;1.08;0.55;;;;;;;-145.69;100.00;70920.88;5093324;28;20226;-82
2021/10/31 08:19:28;;;;;;;0.82;0.50;;;;;;;-145.69;100.00;70912.91;5093310;28;20201;-80
2021/10/31 08:21:55;;;;;;;0.80;0.50;;;;;;;-145.69;98.42;70881.09;5092859;28;20228;-79
2021/10/31 08:24:22;;;;;;;0.85;0.60;;;;;;;-145.69;99.42;70869.16;5093323;28;20225;-81
2021/10/31 08:26:49;;;;;;;0.50;0.50;;;;;;;-145.69;95.95;70865.16;5093338;28;20205;-82
2021/10/31 08:29:18;;;;;;;0.50;0.50;;;;;;;-145.69;94.16;70853.22;5093425;28;20244;-82
2021/10/31 08:31:49;;;;;;;1.13;0.70;;;;;;;-145.69;93.96;70833.34;5093298;28;20287;-83
2021/10/31 08:34:16;;;;;;;0.95;0.60;;;;;;;-145.69;93.57;70801.50;5093362;28;20255;-83
2021/10/31 08:36:43;;;;;;;1.15;0.60;;;;;;;-145.69;90.48;70787.56;5093085;28;20700;-83
2021/10/31 08:39:11;;;;;;;1.00;0.75;;;;;;;-145.69;87.53;70765.69;5092956;28;20233;-83
2021/10/31 08:41:37;;;;;;;1.13;0.70;;;;;;;-145.69;87.62;70745.78;5093057;28;20198;-82
2021/10/31 08:44:06;;;;;;;3.20;0.70;;;;;;;-145.69;80.03;70731.88;5092952;28;20198;-82
2021/10/31 08:46:33;;;;;;;0.57;0.57;;;;;;;-145.69;85.60;70706.00;5093381;28;20580;-83
2021/10/31 08:49:00;;;;;;;1.50;0.85;;;;;;;-145.69;73.65;70702.03;5094587;28;20598;-83
2021/10/31 08:51:27;;;;;;;0.77;0.68;;;;;;;-145.69;70.88;70690.09;5093657;28;20205;-82
2021/10/31 08:53:54;;;;;;;1.48;0.57;;;;;;;-145.69;66.40;70662.22;5097332;28;20641;-83
2021/10/31 08:56:23;;;;;;;0.40;0.40;;;;;;;-145.69;65.87;70668.19;5096800;28;20226;-83
2021/10/31 08:58:50;;;;;;;1.33;0.80;;;;;;;-145.69;65.94;70664.22;5096993;28;20530;-82
2021/10/31 09:01:17;;;;;;;0.63;0.50;;;;;;;-145.69;70.14;70634.38;5096988;28;20232;-83
2021/10/31 09:03:45;;;;;;;1.65;0.90;;;;;;;-145.69;72.08;70656.25;5096886;28;20225;-83
2021/10/31 09:06:12;;;;;;;2.10;0.50;;;;;;;-145.69;68.64;70656.25;5096711;28;20208;-82
2021/10/31 09:08:41;;;;;;;0.73;0.65;;;;;;;-145.69;66.84;70640.34;5096781;28;20267;-82
2021/10/31 09:11:08;;;;;;;0.85;0.70;;;;;;;-145.69;66.43;70646.31;5078683;28;20285;-82
2021/10/31 09:13:35;;;;;;;1.27;0.63;;;;;;;-145.69;64.51;70632.38;5095475;28;20200;-82
2021/10/31 09:16:03;;;;;;;0.90;0.70;;;;;;;-145.69;63.19;70622.44;5096581;28;20262;-82
2021/10/31 09:18:29;;;;;;;0.88;0.70;;;;;;;-145.69;63.59;70614.47;5096582;28;20201;-82
2021/10/31 09:20:56;;;;;;;0.55;0.55;;;;;;;-145.69;64.90;70614.47;5096674;28;20194;-82
2021/10/31 09:23:24;;;;;;;0.60;0.55;;;;;;;-145.69;66.56;70622.44;5096706;28;20251;-82
2021/10/31 09:25:50;;;;;;;0.70;0.70;;;;;;;-145.69;65.19;70594.59;5096707;28;20221;-82
2021/10/31 09:28:17;;;;;;;1.05;0.80;;;;;;;-145.69;63.85;70604.53;5096524;28;20263;-82
2021/10/31 09:30:45;;;;;;;0.65;0.60;;;;;;;-145.69;63.65;70594.59;5109088;28;20245;-82
2021/10/31 09:33:12;;;;;;;1.10;0.65;;;;;;;-145.69;64.33;70582.66;5116677;28;20221;-82
2021/10/31 09:35:45;;;;;;;0.75;0.70;;;;;;;-145.69;64.04;70578.69;5116997;28;20205;-82
2021/10/31 09:38:12;;;;;;;1.40;0.80;;;;;;;-145.69;66.13;70582.66;5116702;28;20225;-82
2021/10/31 09:40:39;;;;;;;2.60;0.85;;;;;;;-145.69;69.29;70580.66;5116672;28;20219;-83
2021/10/31 09:43:06;;;;;;;1.50;1.10;;;;;;;-145.69;65.14;70576.69;5116691;28;20564;-83
2021/10/31 09:45:34;;;;;;;3.55;0.90;;;;;;;-145.69;66.45;70572.72;5116476;28;20308;-82
2021/10/31 09:48:04;;;;;;;0.60;0.60;;;;;;;-145.69;68.84;70564.75;5116355;28;20205;-82
2021/10/31 09:50:33;;;;;;;1.15;0.80;;;;;;;-145.69;69.57;70552.81;5116876;28;20219;-82
2021/10/31 09:53:01;;;;;;;0.93;0.75;;;;;;;-145.69;67.08;70546.84;5116490;28;20606;-83
2021/10/31 09:55:28;;;;;;;0.70;0.70;;;;;;;-145.69;65.76;70526.94;5116466;28;20314;-82
2021/10/31 09:57:55;;;;;;;1.05;0.65;;;;;;;-145.69;65.67;70503.06;5116069;28;20257;-82
2021/10/31 10:00:35;;;;;;;0.70;0.70;;;;;;;-145.69;63.70;70491.13;5115658;28;20229;-83
2021/10/31 10:03:35;;;;;;;1.35;0.80;;;;;;;-145.69;62.88;70487.16;5116286;28;20669;-82
2021/10/31 10:06:17;;;;;;;1.40;0.90;;;;;;;-145.69;63.66;70479.19;5116124;27;20201;-83
2021/10/31 10:08:58;;;;;;;0.82;0.70;;;;;;;-145.69;62.88;70467.28;5116068;28;20200;-82
2021/10/31 10:11:26;;;;;;;1.13;0.80;;;;;;;-145.69;62.31;70459.31;5115965;28;20251;-82
2021/10/31 10:13:53;;;;;;;1.00;0.90;;;;;;;-145.69;62.63;70463.28;5115920;27;20747;-83
2021/10/31 10:16:28;;;;;;;1.83;0.93;;;;;;;-145.69;60.51;70449.38;5115982;28;20197;-82
2021/10/31 10:18:57;;;;;;;0.90;0.90;;;;;;;-145.69;62.94;70449.38;5115858;28;20555;-83
2021/10/31 10:21:25;;;;;;;1.90;1.00;;;;;;;-145.69;63.84;70443.41;5114588;28;20209;-82
2021/10/31 10:23:55;;;;;;;1.38;0.90;;;;;;;-145.69;63.04;70435.44;5116002;28;20205;-82
2021/10/31 10:26:25;;;;;;;3.13;0.90;;;;;;;-145.69;63.79;70417.53;5115669;28;20556;-82
2021/10/31 10:28:52;;;;;;;2.78;1.00;;;;;;;-145.69;63.71;70407.59;5117355;28;20201;-85
2021/10/31 10:31:21;;;;;;;2.38;0.90;;;;;;;-145.69;62.40;70401.63;5115556;28;20726;-81
2021/10/31 10:33:48;;;;;;;0.88;0.77;;;;;;;-145.69;61.22;70395.66;5115577;28;20623;-82
2021/10/31 10:36:17;;;;;;;1.20;0.95;;;;;;;-145.69;61.56;70381.72;5115642;28;20590;-80
2021/10/31 10:38:44;;;;;;;0.98;0.68;;;;;;;-145.69;60.55;70373.78;5115414;28;20243;-80
2021/10/31 10:41:36;;;;;;;0.57;0.57;;;;;;;-145.69;58.76;70355.88;5115609;28;20251;-81
2021/10/31 10:44:16;;;;;;;1.15;0.60;;;;;;;-145.69;60.07;70347.91;5115495;28;20205;-80
2021/10/31 10:46:43;;;;;;;1.30;0.60;;;;;;;-145.69;58.95;70339.94;5102619;28;20301;-80
2021/10/31 10:49:09;;;;;;;0.80;0.50;;;;;;;-145.69;57.66;70332.00;5088670;28;20713;-79
2021/10/31 10:51:37;;;;;;;0.52;0.52;;;;;;;-145.69;56.65;70316.06;5094561;28;20707;-79
2021/10/31 10:54:10;;;;;;;1.25;0.73;;;;;;;-145.69;56.34;70300.16;5094658;28;20653;-79
2021/10/31 10:56:37;;;;;;;0.77;0.70;;;;;;;-145.69;58.24;70304.13;5094491;28;20688;-79
2021/10/31 10:59:03;;;;;;;0.85;0.75;;;;;;;-145.69;56.68;70294.19;5094816;28;20205;-80
2021/10/31 11:01:29;;;;;;;1.40;0.70;;;;;;;-145.69;56.79;70278.28;5094523;28;20303;-80
2021/10/31 11:03:56;;;;;;;1.25;0.90;;;;;;;-145.69;57.27;70278.28;5094791;28;20206;-78
2021/10/31 11:06:28;;;;;;;0.68;0.60;;;;;;;-145.69;54.31;70274.31;5094619;28;20212;-77
2021/10/31 11:09:16;;;;;;;0.90;0.80;;;;;;;-145.69;55.88;70272.31;5094524;28;20293;-79
2021/10/31 11:11:43;;;;;;;0.68;0.60;;;;;;;-145.69;57.23;70258.38;5093117;28;20210;-80
2021/10/31 11:14:09;;;;;;;0.40;0.40;;;;;;;-145.69;55.40;70248.44;5093248;28;20198;-80
2021/10/31 11:16:36;;;;;;;0.80;0.60;;;;;;;-145.69;55.64;70244.47;5094251;28;20201;-80
2021/10/31 11:19:02;;;;;;;1.40;0.70;;;;;;;-145.69;54.16;70238.50;5094397;28;20202;-80
2021/10/31 11:21:29;;;;;;;1.27;0.80;;;;;;;-145.69;56.99;70234.50;5094923;28;20198;-80